Terminal Aerodrome Forecast
Issued by NWS Omaha/Valley, NE

Home | Current Version | Previous Version | Graphics & Text | Print | Product List | Glossary On
Versions: 1 2 3 4 5 6 7 8 9 10 11 12 13 14 15 16 17 18 19 20 21 22 23 24 25 26 27 28 29 30 31 32 33 34 35 36 37 38 39 40
000
FTUS43 KOAX 241135
TAFOFK
TAF
KOFK 241135Z 2412/2512 15013KT P6SM VCSH BKN120 WS020/17040KT
      TEMPO 2412/2414 VRB15G20KT -TSRA BKN060CB
     FM241900 17012KT P6SM VCSH BKN090
      TEMPO 2419/2421 4SM TSRA BR OVC040CB
     FM250000 20008KT P6SM BKN200
     FM250600 29010KT P6SM SKC=

USA.gov is the U.S. government's official web portal to all federal, state and local government web resources and services.